Tropical Cyclones
[Index]
Main Index Home Page Stock Weather Photos Extreme Storms Discussion Storm News and Storm Chasing Reports Tropical Cyclones / Hurricanes / Typhoons Weather Data and Links Wild Fires / Bushfires Weather Observation Techniques Weather Picture Catalogue Tornado Pictures and Reports Stock Video Footage and DVDs for sale
Season 1964-1965 Tropical Cyclone 196465_05 Track Map
Season 1964-1965 Summaries: [BoM-AU] [JTWC-AU] [JTWC-SIO] [JTWC-SPAC] [JTWC-SH]
<<- Previous TC | BoM 1964-1965 Season | Next TC ->>

click for intensity scale information  Lat/long Grid: Show Hide

 Date Labels: Show Hide

Bureau of Meteorology Tropical Cyclone Data

Name: 196465_05
Number: 393 / 196465_05

12 Jan 1965 05:00 UTC to 20 Jan 1965 23:00 UTC

    date/time    lat    long    hPa   cat  kts
1965-01-12 05   10.7   138.3    998                     
1965-01-12 11   10.9   138.9    998                     
1965-01-12 23   11.0   140.3    998                     
1965-01-13 11   11.0   141.2    996                     
1965-01-13 17   11.1   141.7    996                     
1965-01-13 21   11.1   142.0    997                     
1965-01-13 23   11.2   142.2    998                     
1965-01-14 08   11.3   142.9   1000                     
1965-01-14 11   11.4   143.0   1000                     
1965-01-14 23   12.0   144.0   1002                     
1965-01-15 11   12.5   145.0   1003                     
1965-01-15 23   12.8   145.8   1003                     
1965-01-16 11   13.1   146.6   1002                     
1965-01-16 23   13.2   147.3   1002                     
1965-01-17 11   13.1   148.1   1002                     
1965-01-17 23   13.0   149.0   1002                     
1965-01-18 11   13.3   150.0   1003                     
1965-01-18 23   13.7   151.0   1002                     
1965-01-19 11   14.5   151.8   1002                     
1965-01-19 23   15.6   152.7   1002                     
1965-01-20 11   16.3   154.1   1003                     
1965-01-20 23   16.9   155.9   1005                     
Winds are 10-min average.

Tropical cyclone tracks developed by Michael Bath using data from the Bureau of Meteorology and Google Maps.


[Australian Severe Weather index] [Copyright Notice] [Email Contacts] [Search This Site] [Privacy Policy]
Document: tropical_cyclone_196465_05.htm Updated: 30 May 2013